sensor_id;sensor_type;location;lat;lon;timestamp;P1;durP1;ratioP1;P2;durP2;ratioP2
74309;SDS011;62722;51.142;17.052;2022-08-06T00:00:55;6.82;;;5.15;;
74309;SDS011;62722;51.142;17.052;2022-08-06T00:03:22;7.70;;;5.22;;
74309;SDS011;62722;51.142;17.052;2022-08-06T00:05:49;5.95;;;5.35;;
74309;SDS011;62722;51.142;17.052;2022-08-06T00:08:17;6.85;;;5.15;;
74309;SDS011;62722;51.142;17.052;2022-08-06T00:10:44;5.55;;;4.68;;
74309;SDS011;62722;51.142;17.052;2022-08-06T00:13:12;7.55;;;4.90;;
74309;SDS011;62722;51.142;17.052;2022-08-06T00:15:40;8.30;;;5.20;;
74309;SDS011;62722;51.142;17.052;2022-08-06T00:18:11;7.00;;;5.10;;
74309;SDS011;62722;51.142;17.052;2022-08-06T00:20:39;7.18;;;4.97;;
74309;SDS011;62722;51.142;17.052;2022-08-06T00:23:06;6.47;;;5.03;;
74309;SDS011;62722;51.142;17.052;2022-08-06T00:25:34;6.15;;;4.93;;
74309;SDS011;62722;51.142;17.052;2022-08-06T00:28:01;6.85;;;5.13;;
74309;SDS011;62722;51.142;17.052;2022-08-06T00:30:29;5.57;;;4.82;;
74309;SDS011;62722;51.142;17.052;2022-08-06T00:32:57;7.53;;;5.00;;
74309;SDS011;62722;51.142;17.052;2022-08-06T00:35:27;6.88;;;5.35;;
74309;SDS011;62722;51.142;17.052;2022-08-06T00:37:54;8.65;;;5.78;;
74309;SDS011;62722;51.142;17.052;2022-08-06T00:40:22;6.72;;;5.57;;
74309;SDS011;62722;51.142;17.052;2022-08-06T00:42:51;6.82;;;5.72;;
74309;SDS011;62722;51.142;17.052;2022-08-06T00:45:19;7.00;;;6.20;;
74309;SDS011;62722;51.142;17.052;2022-08-06T00:47:46;10.10;;;6.78;;
74309;SDS011;62722;51.142;17.052;2022-08-06T00:50:17;10.95;;;7.35;;
74309;SDS011;62722;51.142;17.052;2022-08-06T00:52:48;8.10;;;6.88;;
74309;SDS011;62722;51.142;17.052;2022-08-06T00:55:16;9.25;;;6.60;;
74309;SDS011;62722;51.142;17.052;2022-08-06T00:57:43;9.32;;;6.80;;
74309;SDS011;62722;51.142;17.052;2022-08-06T01:00:10;7.72;;;6.10;;
74309;SDS011;62722;51.142;17.052;2022-08-06T01:02:39;7.90;;;6.03;;
74309;SDS011;62722;51.142;17.052;2022-08-06T01:05:06;9.30;;;6.28;;
74309;SDS011;62722;51.142;17.052;2022-08-06T01:07:33;8.27;;;6.45;;
74309;SDS011;62722;51.142;17.052;2022-08-06T01:10:05;8.00;;;6.45;;
74309;SDS011;62722;51.142;17.052;2022-08-06T01:12:33;7.47;;;6.32;;
74309;SDS011;62722;51.142;17.052;2022-08-06T01:15:02;9.25;;;6.78;;
74309;SDS011;62722;51.142;17.052;2022-08-06T01:17:33;10.90;;;9.43;;
74309;SDS011;62722;51.142;17.052;2022-08-06T01:20:09;8.82;;;7.20;;
74309;SDS011;62722;51.142;17.052;2022-08-06T01:23:00;10.25;;;6.55;;
74309;SDS011;62722;51.142;17.052;2022-08-06T01:25:46;7.93;;;6.43;;
74309;SDS011;62722;51.142;17.052;2022-08-06T01:28:30;9.68;;;6.32;;
74309;SDS011;62722;51.142;17.052;2022-08-06T01:31:01;9.77;;;6.53;;
74309;SDS011;62722;51.142;17.052;2022-08-06T01:33:35;7.97;;;6.05;;
74309;SDS011;62722;51.142;17.052;2022-08-06T01:36:07;8.65;;;6.13;;
74309;SDS011;62722;51.142;17.052;2022-08-06T01:38:41;8.30;;;6.63;;
74309;SDS011;62722;51.142;17.052;2022-08-06T01:41:15;8.60;;;6.60;;
74309;SDS011;62722;51.142;17.052;2022-08-06T01:44:01;9.55;;;7.10;;
74309;SDS011;62722;51.142;17.052;2022-08-06T01:46:30;9.20;;;6.90;;
74309;SDS011;62722;51.142;17.052;2022-08-06T01:48:59;10.18;;;7.05;;
74309;SDS011;62722;51.142;17.052;2022-08-06T01:51:29;8.25;;;6.68;;
74309;SDS011;62722;51.142;17.052;2022-08-06T01:53:57;10.85;;;6.95;;
74309;SDS011;62722;51.142;17.052;2022-08-06T01:56:26;8.68;;;6.78;;
74309;SDS011;62722;51.142;17.052;2022-08-06T02:01:27;11.27;;;7.55;;
74309;SDS011;62722;51.142;17.052;2022-08-06T02:03:58;13.20;;;9.05;;
74309;SDS011;62722;51.142;17.052;2022-08-06T02:06:28;10.35;;;8.43;;
74309;SDS011;62722;51.142;17.052;2022-08-06T02:09:00;11.73;;;8.55;;
74309;SDS011;62722;51.142;17.052;2022-08-06T02:11:30;14.15;;;9.43;;
74309;SDS011;62722;51.142;17.052;2022-08-06T02:14:01;12.75;;;9.30;;
74309;SDS011;62722;51.142;17.052;2022-08-06T02:16:33;12.48;;;9.05;;
74309;SDS011;62722;51.142;17.052;2022-08-06T02:19:04;13.70;;;8.85;;
74309;SDS011;62722;51.142;17.052;2022-08-06T02:21:34;11.82;;;7.55;;
74309;SDS011;62722;51.142;17.052;2022-08-06T02:24:05;9.15;;;6.65;;
74309;SDS011;62722;51.142;17.052;2022-08-06T02:26:35;9.93;;;6.82;;
74309;SDS011;62722;51.142;17.052;2022-08-06T02:29:06;10.63;;;7.00;;
74309;SDS011;62722;51.142;17.052;2022-08-06T02:31:38;8.10;;;6.13;;
74309;SDS011;62722;51.142;17.052;2022-08-06T02:34:05;10.15;;;6.50;;
74309;SDS011;62722;51.142;17.052;2022-08-06T02:36:34;8.50;;;6.55;;
74309;SDS011;62722;51.142;17.052;2022-08-06T02:39:07;10.05;;;6.63;;
74309;SDS011;62722;51.142;17.052;2022-08-06T02:41:40;10.75;;;6.43;;
74309;SDS011;62722;51.142;17.052;2022-08-06T02:44:15;8.43;;;5.97;;
74309;SDS011;62722;51.142;17.052;2022-08-06T02:46:48;9.52;;;6.20;;
74309;SDS011;62722;51.142;17.052;2022-08-06T02:49:25;8.68;;;6.28;;
74309;SDS011;62722;51.142;17.052;2022-08-06T02:51:55;9.75;;;6.35;;
74309;SDS011;62722;51.142;17.052;2022-08-06T02:54:31;10.15;;;6.18;;
74309;SDS011;62722;51.142;17.052;2022-08-06T02:57:04;8.40;;;5.80;;
74309;SDS011;62722;51.142;17.052;2022-08-06T02:59:36;9.75;;;5.60;;
74309;SDS011;62722;51.142;17.052;2022-08-06T03:02:22;7.57;;;5.47;;
74309;SDS011;62722;51.142;17.052;2022-08-06T03:04:53;8.05;;;5.57;;
74309;SDS011;62722;51.142;17.052;2022-08-06T03:07:24;7.38;;;4.93;;
74309;SDS011;62722;51.142;17.052;2022-08-06T03:09:54;6.63;;;4.70;;
74309;SDS011;62722;51.142;17.052;2022-08-06T03:12:22;8.25;;;4.78;;
74309;SDS011;62722;51.142;17.052;2022-08-06T03:14:53;6.72;;;4.05;;
74309;SDS011;62722;51.142;17.052;2022-08-06T03:17:46;6.82;;;3.78;;
74309;SDS011;62722;51.142;17.052;2022-08-06T03:20:15;5.40;;;3.28;;
74309;SDS011;62722;51.142;17.052;2022-08-06T03:22:48;5.40;;;3.58;;
74309;SDS011;62722;51.142;17.052;2022-08-06T03:25:21;5.00;;;2.95;;
74309;SDS011;62722;51.142;17.052;2022-08-06T03:27:49;5.72;;;3.10;;
74309;SDS011;62722;51.142;17.052;2022-08-06T03:30:18;6.18;;;3.20;;
74309;SDS011;62722;51.142;17.052;2022-08-06T03:32:48;5.80;;;3.20;;
74309;SDS011;62722;51.142;17.052;2022-08-06T03:35:17;4.63;;;3.22;;
74309;SDS011;62722;51.142;17.052;2022-08-06T03:37:45;5.72;;;3.50;;
74309;SDS011;62722;51.142;17.052;2022-08-06T03:40:15;6.32;;;3.53;;
74309;SDS011;62722;51.142;17.052;2022-08-06T03:42:45;6.95;;;3.63;;
74309;SDS011;62722;51.142;17.052;2022-08-06T03:45:12;6.50;;;3.30;;
74309;SDS011;62722;51.142;17.052;2022-08-06T03:47:41;5.78;;;3.40;;
74309;SDS011;62722;51.142;17.052;2022-08-06T03:50:15;5.82;;;3.45;;
74309;SDS011;62722;51.142;17.052;2022-08-06T03:52:54;6.55;;;3.13;;
74309;SDS011;62722;51.142;17.052;2022-08-06T03:55:26;4.88;;;3.00;;
74309;SDS011;62722;51.142;17.052;2022-08-06T03:57:57;6.00;;;2.97;;
74309;SDS011;62722;51.142;17.052;2022-08-06T04:00:29;4.35;;;2.80;;
74309;SDS011;62722;51.142;17.052;2022-08-06T04:03:00;4.32;;;2.90;;
74309;SDS011;62722;51.142;17.052;2022-08-06T04:05:31;4.90;;;2.50;;
74309;SDS011;62722;51.142;17.052;2022-08-06T04:08:01;3.88;;;2.42;;
74309;SDS011;62722;51.142;17.052;2022-08-06T04:10:32;3.47;;;2.30;;
74309;SDS011;62722;51.142;17.052;2022-08-06T04:13:03;3.60;;;2.00;;
74309;SDS011;62722;51.142;17.052;2022-08-06T04:15:34;3.42;;;2.10;;
74309;SDS011;62722;51.142;17.052;2022-08-06T04:18:02;3.28;;;2.08;;
74309;SDS011;62722;51.142;17.052;2022-08-06T04:20:33;4.18;;;2.15;;
74309;SDS011;62722;51.142;17.052;2022-08-06T04:23:03;3.30;;;2.33;;
74309;SDS011;62722;51.142;17.052;2022-08-06T04:25:33;3.60;;;2.22;;
74309;SDS011;62722;51.142;17.052;2022-08-06T04:28:03;4.47;;;2.13;;
74309;SDS011;62722;51.142;17.052;2022-08-06T04:30:32;4.47;;;2.30;;
74309;SDS011;62722;51.142;17.052;2022-08-06T04:33:01;3.65;;;2.20;;
74309;SDS011;62722;51.142;17.052;2022-08-06T04:35:34;4.32;;;2.25;;
74309;SDS011;62722;51.142;17.052;2022-08-06T04:38:05;4.18;;;2.30;;
74309;SDS011;62722;51.142;17.052;2022-08-06T04:40:34;5.18;;;2.90;;
74309;SDS011;62722;51.142;17.052;2022-08-06T04:43:04;5.70;;;3.15;;
74309;SDS011;62722;51.142;17.052;2022-08-06T04:45:32;6.13;;;3.38;;
74309;SDS011;62722;51.142;17.052;2022-08-06T04:48:00;5.50;;;3.00;;
74309;SDS011;62722;51.142;17.052;2022-08-06T04:50:29;3.53;;;2.03;;
74309;SDS011;62722;51.142;17.052;2022-08-06T04:53:11;4.28;;;2.38;;
74309;SDS011;62722;51.142;17.052;2022-08-06T04:55:40;5.95;;;2.00;;
74309;SDS011;62722;51.142;17.052;2022-08-06T04:58:11;3.20;;;1.90;;
74309;SDS011;62722;51.142;17.052;2022-08-06T05:00:41;4.93;;;2.30;;
74309;SDS011;62722;51.142;17.052;2022-08-06T05:03:09;3.53;;;2.38;;
74309;SDS011;62722;51.142;17.052;2022-08-06T05:05:37;5.38;;;2.50;;
74309;SDS011;62722;51.142;17.052;2022-08-06T05:08:10;3.22;;;2.00;;
74309;SDS011;62722;51.142;17.052;2022-08-06T05:10:41;6.10;;;2.38;;
74309;SDS011;62722;51.142;17.052;2022-08-06T05:13:13;4.35;;;2.22;;
74309;SDS011;62722;51.142;17.052;2022-08-06T05:15:43;6.50;;;2.65;;
74309;SDS011;62722;51.142;17.052;2022-08-06T05:18:16;4.32;;;2.45;;
74309;SDS011;62722;51.142;17.052;2022-08-06T05:20:48;4.57;;;2.50;;
74309;SDS011;62722;51.142;17.052;2022-08-06T05:23:20;5.72;;;2.22;;
74309;SDS011;62722;51.142;17.052;2022-08-06T05:25:52;5.10;;;2.72;;
74309;SDS011;62722;51.142;17.052;2022-08-06T05:28:20;5.60;;;2.53;;
74309;SDS011;62722;51.142;17.052;2022-08-06T05:30:48;3.95;;;2.33;;
74309;SDS011;62722;51.142;17.052;2022-08-06T05:33:23;5.20;;;2.63;;
74309;SDS011;62722;51.142;17.052;2022-08-06T05:35:52;4.38;;;2.67;;
74309;SDS011;62722;51.142;17.052;2022-08-06T05:38:21;4.70;;;2.80;;
74309;SDS011;62722;51.142;17.052;2022-08-06T05:40:51;3.42;;;2.30;;
74309;SDS011;62722;51.142;17.052;2022-08-06T05:43:19;3.50;;;2.30;;
74309;SDS011;62722;51.142;17.052;2022-08-06T05:45:47;6.05;;;2.80;;
74309;SDS011;62722;51.142;17.052;2022-08-06T05:48:17;3.65;;;2.45;;
74309;SDS011;62722;51.142;17.052;2022-08-06T05:50:48;4.40;;;2.63;;
74309;SDS011;62722;51.142;17.052;2022-08-06T05:53:32;6.20;;;3.05;;
74309;SDS011;62722;51.142;17.052;2022-08-06T05:56:04;3.78;;;2.72;;
74309;SDS011;62722;51.142;17.052;2022-08-06T05:58:37;3.40;;;2.53;;
74309;SDS011;62722;51.142;17.052;2022-08-06T06:01:08;3.53;;;2.47;;
74309;SDS011;62722;51.142;17.052;2022-08-06T06:03:37;5.63;;;2.80;;
74309;SDS011;62722;51.142;17.052;2022-08-06T06:06:05;5.22;;;2.70;;
74309;SDS011;62722;51.142;17.052;2022-08-06T06:08:34;5.97;;;3.03;;
74309;SDS011;62722;51.142;17.052;2022-08-06T06:11:02;3.85;;;2.60;;
74309;SDS011;62722;51.142;17.052;2022-08-06T06:13:31;5.50;;;3.10;;
74309;SDS011;62722;51.142;17.052;2022-08-06T06:16:02;5.15;;;2.88;;
74309;SDS011;62722;51.142;17.052;2022-08-06T06:18:40;5.70;;;2.88;;
74309;SDS011;62722;51.142;17.052;2022-08-06T06:21:18;5.88;;;2.92;;
74309;SDS011;62722;51.142;17.052;2022-08-06T06:24:00;4.22;;;2.78;;
74309;SDS011;62722;51.142;17.052;2022-08-06T06:26:34;4.82;;;2.67;;
74309;SDS011;62722;51.142;17.052;2022-08-06T06:29:07;4.65;;;2.50;;
74309;SDS011;62722;51.142;17.052;2022-08-06T06:31:44;4.45;;;2.90;;
74309;SDS011;62722;51.142;17.052;2022-08-06T06:34:18;5.70;;;2.97;;
74309;SDS011;62722;51.142;17.052;2022-08-06T06:36:53;4.70;;;2.88;;
74309;SDS011;62722;51.142;17.052;2022-08-06T06:39:30;5.70;;;3.15;;
74309;SDS011;62722;51.142;17.052;2022-08-06T06:42:07;4.68;;;2.95;;
74309;SDS011;62722;51.142;17.052;2022-08-06T06:44:39;5.80;;;3.38;;
74309;SDS011;62722;51.142;17.052;2022-08-06T06:47:12;5.65;;;3.42;;
74309;SDS011;62722;51.142;17.052;2022-08-06T06:49:45;5.70;;;3.55;;
74309;SDS011;62722;51.142;17.052;2022-08-06T06:52:17;4.82;;;3.38;;
74309;SDS011;62722;51.142;17.052;2022-08-06T06:54:50;5.00;;;3.20;;
74309;SDS011;62722;51.142;17.052;2022-08-06T06:57:29;5.70;;;3.40;;
74309;SDS011;62722;51.142;17.052;2022-08-06T06:59:59;4.35;;;3.17;;
74309;SDS011;62722;51.142;17.052;2022-08-06T07:02:30;5.60;;;3.47;;
74309;SDS011;62722;51.142;17.052;2022-08-06T07:05:00;4.50;;;3.25;;
74309;SDS011;62722;51.142;17.052;2022-08-06T07:07:30;4.13;;;3.30;;
74309;SDS011;62722;51.142;17.052;2022-08-06T07:10:02;5.25;;;3.60;;
74309;SDS011;62722;51.142;17.052;2022-08-06T07:12:32;4.85;;;3.13;;
74309;SDS011;62722;51.142;17.052;2022-08-06T07:15:02;4.28;;;3.10;;
74309;SDS011;62722;51.142;17.052;2022-08-06T07:17:31;6.95;;;3.42;;
74309;SDS011;62722;51.142;17.052;2022-08-06T07:20:02;5.25;;;3.38;;
74309;SDS011;62722;51.142;17.052;2022-08-06T07:22:34;5.75;;;3.53;;
74309;SDS011;62722;51.142;17.052;2022-08-06T07:25:12;6.13;;;3.45;;
74309;SDS011;62722;51.142;17.052;2022-08-06T07:27:42;4.72;;;3.33;;
74309;SDS011;62722;51.142;17.052;2022-08-06T07:30:15;4.68;;;3.58;;
74309;SDS011;62722;51.142;17.052;2022-08-06T07:32:53;4.03;;;3.40;;
74309;SDS011;62722;51.142;17.052;2022-08-06T07:35:41;5.82;;;3.55;;
74309;SDS011;62722;51.142;17.052;2022-08-06T07:39:13;5.70;;;3.50;;
74309;SDS011;62722;51.142;17.052;2022-08-06T07:42:50;5.75;;;3.60;;
74309;SDS011;62722;51.142;17.052;2022-08-06T07:57:18;5.20;;;3.10;;
74309;SDS011;62722;51.142;17.052;2022-08-06T08:00:52;6.20;;;3.42;;
74309;SDS011;62722;51.142;17.052;2022-08-06T08:03:20;3.97;;;3.10;;
74309;SDS011;62722;51.142;17.052;2022-08-06T08:06:07;6.15;;;3.53;;
74309;SDS011;62722;51.142;17.052;2022-08-06T08:08:46;7.63;;;3.05;;
74309;SDS011;62722;51.142;17.052;2022-08-06T08:11:14;4.80;;;3.42;;
74309;SDS011;62722;51.142;17.052;2022-08-06T08:13:42;6.63;;;3.55;;
74309;SDS011;62722;51.142;17.052;2022-08-06T08:16:12;5.95;;;3.53;;
74309;SDS011;62722;51.142;17.052;2022-08-06T08:18:41;6.30;;;3.53;;
74309;SDS011;62722;51.142;17.052;2022-08-06T08:21:08;5.68;;;3.58;;
74309;SDS011;62722;51.142;17.052;2022-08-06T08:23:38;4.63;;;3.47;;
74309;SDS011;62722;51.142;17.052;2022-08-06T08:26:07;5.30;;;3.08;;
74309;SDS011;62722;51.142;17.052;2022-08-06T08:28:35;4.15;;;3.10;;
74309;SDS011;62722;51.142;17.052;2022-08-06T08:31:03;4.97;;;3.15;;
74309;SDS011;62722;51.142;17.052;2022-08-06T08:33:33;5.20;;;3.40;;
74309;SDS011;62722;51.142;17.052;2022-08-06T08:39:52;4.45;;;3.25;;
74309;SDS011;62722;51.142;17.052;2022-08-06T09:12:25;4.80;;;3.13;;
74309;SDS011;62722;51.142;17.052;2022-08-06T09:14:53;5.38;;;3.38;;
74309;SDS011;62722;51.142;17.052;2022-08-06T09:17:20;5.05;;;3.25;;
74309;SDS011;62722;51.142;17.052;2022-08-06T09:19:50;5.40;;;3.60;;
74309;SDS011;62722;51.142;17.052;2022-08-06T09:22:18;4.25;;;3.20;;
74309;SDS011;62722;51.142;17.052;2022-08-06T09:24:46;4.70;;;3.30;;
74309;SDS011;62722;51.142;17.052;2022-08-06T09:27:13;7.20;;;3.20;;
74309;SDS011;62722;51.142;17.052;2022-08-06T09:29:50;4.88;;;3.40;;
74309;SDS011;62722;51.142;17.052;2022-08-06T09:35:15;5.55;;;3.15;;
74309;SDS011;62722;51.142;17.052;2022-08-06T09:37:44;4.80;;;4.18;;
74309;SDS011;62722;51.142;17.052;2022-08-06T09:40:24;4.07;;;3.13;;
74309;SDS011;62722;51.142;17.052;2022-08-06T09:42:58;4.82;;;3.22;;
74309;SDS011;62722;51.142;17.052;2022-08-06T09:45:30;6.63;;;3.75;;
74309;SDS011;62722;51.142;17.052;2022-08-06T09:48:01;3.92;;;3.20;;
74309;SDS011;62722;51.142;17.052;2022-08-06T09:50:35;4.47;;;3.45;;
74309;SDS011;62722;51.142;17.052;2022-08-06T09:53:03;4.55;;;3.40;;
74309;SDS011;62722;51.142;17.052;2022-08-06T09:55:31;4.47;;;2.92;;
74309;SDS011;62722;51.142;17.052;2022-08-06T09:57:59;5.32;;;3.30;;
74309;SDS011;62722;51.142;17.052;2022-08-06T10:00:28;4.03;;;3.30;;
74309;SDS011;62722;51.142;17.052;2022-08-06T10:02:58;4.25;;;2.90;;
74309;SDS011;62722;51.142;17.052;2022-08-06T10:05:27;5.55;;;3.00;;
74309;SDS011;62722;51.142;17.052;2022-08-06T10:08:04;4.07;;;3.00;;
74309;SDS011;62722;51.142;17.052;2022-08-06T10:10:39;3.88;;;3.10;;
74309;SDS011;62722;51.142;17.052;2022-08-06T10:13:16;3.95;;;3.13;;
74309;SDS011;62722;51.142;17.052;2022-08-06T10:15:45;6.68;;;3.10;;
74309;SDS011;62722;51.142;17.052;2022-08-06T10:18:34;3.90;;;2.88;;
74309;SDS011;62722;51.142;17.052;2022-08-06T10:21:32;4.38;;;2.80;;
74309;SDS011;62722;51.142;17.052;2022-08-06T10:24:01;3.58;;;2.80;;
74309;SDS011;62722;51.142;17.052;2022-08-06T10:26:30;3.45;;;2.72;;
74309;SDS011;62722;51.142;17.052;2022-08-06T10:29:02;3.30;;;2.88;;
74309;SDS011;62722;51.142;17.052;2022-08-06T10:31:31;4.07;;;3.08;;
74309;SDS011;62722;51.142;17.052;2022-08-06T10:34:02;4.35;;;2.90;;
74309;SDS011;62722;51.142;17.052;2022-08-06T10:36:36;4.63;;;2.80;;
74309;SDS011;62722;51.142;17.052;2022-08-06T10:39:07;3.25;;;2.67;;
74309;SDS011;62722;51.142;17.052;2022-08-06T10:41:35;4.15;;;2.80;;
74309;SDS011;62722;51.142;17.052;2022-08-06T10:44:14;3.92;;;2.90;;
74309;SDS011;62722;51.142;17.052;2022-08-06T10:46:41;4.18;;;2.95;;
74309;SDS011;62722;51.142;17.052;2022-08-06T10:49:13;3.10;;;2.80;;
74309;SDS011;62722;51.142;17.052;2022-08-06T10:51:43;4.07;;;2.60;;
74309;SDS011;62722;51.142;17.052;2022-08-06T10:55:08;3.28;;;2.80;;
74309;SDS011;62722;51.142;17.052;2022-08-06T10:57:37;4.55;;;2.80;;
74309;SDS011;62722;51.142;17.052;2022-08-06T11:00:06;3.58;;;2.83;;
74309;SDS011;62722;51.142;17.052;2022-08-06T11:02:41;4.38;;;2.72;;
74309;SDS011;62722;51.142;17.052;2022-08-06T11:05:17;3.03;;;2.30;;
74309;SDS011;62722;51.142;17.052;2022-08-06T11:08:02;3.85;;;2.80;;
74309;SDS011;62722;51.142;17.052;2022-08-06T11:10:47;3.08;;;2.25;;
74309;SDS011;62722;51.142;17.052;2022-08-06T11:13:27;3.03;;;2.22;;
74309;SDS011;62722;51.142;17.052;2022-08-06T11:15:57;4.25;;;2.70;;
74309;SDS011;62722;51.142;17.052;2022-08-06T11:18:25;4.82;;;2.83;;
74309;SDS011;62722;51.142;17.052;2022-08-06T11:20:55;3.58;;;2.72;;
74309;SDS011;62722;51.142;17.052;2022-08-06T11:23:31;2.83;;;2.30;;
74309;SDS011;62722;51.142;17.052;2022-08-06T11:26:00;3.00;;;2.47;;
74309;SDS011;62722;51.142;17.052;2022-08-06T12:02:57;2.58;;;1.30;;
74309;SDS011;62722;51.142;17.052;2022-08-06T12:05:32;1.83;;;1.00;;
74309;SDS011;62722;51.142;17.052;2022-08-06T12:08:15;2.40;;;1.23;;
74309;SDS011;62722;51.142;17.052;2022-08-06T12:13:51;2.50;;;1.17;;
74309;SDS011;62722;51.142;17.052;2022-08-06T12:16:36;1.98;;;1.10;;
74309;SDS011;62722;51.142;17.052;2022-08-06T12:19:11;2.67;;;1.10;;
74309;SDS011;62722;51.142;17.052;2022-08-06T12:21:41;2.35;;;1.10;;
74309;SDS011;62722;51.142;17.052;2022-08-06T12:24:10;2.80;;;1.02;;
74309;SDS011;62722;51.142;17.052;2022-08-06T12:26:38;2.20;;;1.10;;
74309;SDS011;62722;51.142;17.052;2022-08-06T12:29:07;2.17;;;1.10;;
74309;SDS011;62722;51.142;17.052;2022-08-06T12:31:37;2.55;;;1.70;;
74309;SDS011;62722;51.142;17.052;2022-08-06T12:34:07;2.05;;;1.20;;
74309;SDS011;62722;51.142;17.052;2022-08-06T12:36:42;2.05;;;1.05;;
74309;SDS011;62722;51.142;17.052;2022-08-06T12:39:11;2.65;;;1.13;;
74309;SDS011;62722;51.142;17.052;2022-08-06T12:41:39;1.73;;;1.00;;
74309;SDS011;62722;51.142;17.052;2022-08-06T12:44:11;2.55;;;1.10;;
74309;SDS011;62722;51.142;17.052;2022-08-06T12:46:41;2.20;;;1.15;;
74309;SDS011;62722;51.142;17.052;2022-08-06T12:49:10;2.45;;;1.13;;
74309;SDS011;62722;51.142;17.052;2022-08-06T12:51:37;2.25;;;1.10;;
74309;SDS011;62722;51.142;17.052;2022-08-06T12:54:06;2.50;;;1.02;;
74309;SDS011;62722;51.142;17.052;2022-08-06T12:56:38;2.38;;;1.40;;
74309;SDS011;62722;51.142;17.052;2022-08-06T12:59:09;2.40;;;1.17;;
74309;SDS011;62722;51.142;17.052;2022-08-06T13:01:38;3.38;;;1.13;;
74309;SDS011;62722;51.142;17.052;2022-08-06T13:04:11;2.80;;;1.42;;
74309;SDS011;62722;51.142;17.052;2022-08-06T13:06:39;2.97;;;1.30;;
74309;SDS011;62722;51.142;17.052;2022-08-06T13:09:06;4.28;;;2.60;;
74309;SDS011;62722;51.142;17.052;2022-08-06T13:11:34;2.65;;;1.80;;
74309;SDS011;62722;51.142;17.052;2022-08-06T13:14:08;4.72;;;2.78;;
74309;SDS011;62722;51.142;17.052;2022-08-06T13:16:40;3.10;;;1.50;;
74309;SDS011;62722;51.142;17.052;2022-08-06T13:19:13;2.10;;;1.15;;
74309;SDS011;62722;51.142;17.052;2022-08-06T13:21:45;2.85;;;1.65;;
74309;SDS011;62722;51.142;17.052;2022-08-06T13:24:25;2.42;;;1.60;;
74309;SDS011;62722;51.142;17.052;2022-08-06T13:26:54;4.45;;;1.50;;
74309;SDS011;62722;51.142;17.052;2022-08-06T13:29:23;2.38;;;1.30;;
74309;SDS011;62722;51.142;17.052;2022-08-06T13:31:58;2.35;;;1.20;;
74309;SDS011;62722;51.142;17.052;2022-08-06T13:34:46;5.18;;;2.35;;
74309;SDS011;62722;51.142;17.052;2022-08-06T13:40:13;2.63;;;1.50;;
74309;SDS011;62722;51.142;17.052;2022-08-06T13:42:47;2.03;;;1.23;;
74309;SDS011;62722;51.142;17.052;2022-08-06T13:45:20;2.08;;;1.20;;
74309;SDS011;62722;51.142;17.052;2022-08-06T13:48:00;3.85;;;1.40;;
74309;SDS011;62722;51.142;17.052;2022-08-06T13:50:38;3.80;;;1.30;;
74309;SDS011;62722;51.142;17.052;2022-08-06T13:53:10;2.05;;;1.30;;
74309;SDS011;62722;51.142;17.052;2022-08-06T13:55:42;3.15;;;1.20;;
74309;SDS011;62722;51.142;17.052;2022-08-06T13:58:10;2.17;;;1.27;;
74309;SDS011;62722;51.142;17.052;2022-08-06T14:00:38;1.90;;;1.10;;
74309;SDS011;62722;51.142;17.052;2022-08-06T14:03:19;3.08;;;1.40;;
74309;SDS011;62722;51.142;17.052;2022-08-06T14:06:44;2.80;;;1.50;;
74309;SDS011;62722;51.142;17.052;2022-08-06T14:09:12;2.55;;;1.67;;
74309;SDS011;62722;51.142;17.052;2022-08-06T14:11:42;2.80;;;1.30;;
74309;SDS011;62722;51.142;17.052;2022-08-06T14:14:10;2.45;;;1.10;;
74309;SDS011;62722;51.142;17.052;2022-08-06T14:16:37;1.80;;;1.10;;
74309;SDS011;62722;51.142;17.052;2022-08-06T14:19:04;2.00;;;1.23;;
74309;SDS011;62722;51.142;17.052;2022-08-06T14:21:32;3.17;;;1.50;;
74309;SDS011;62722;51.142;17.052;2022-08-06T14:24:01;2.15;;;1.30;;
74309;SDS011;62722;51.142;17.052;2022-08-06T14:26:29;2.70;;;1.13;;
74309;SDS011;62722;51.142;17.052;2022-08-06T14:28:57;3.30;;;1.20;;
74309;SDS011;62722;51.142;17.052;2022-08-06T14:31:26;2.22;;;1.10;;
74309;SDS011;62722;51.142;17.052;2022-08-06T14:33:54;1.95;;;1.10;;
74309;SDS011;62722;51.142;17.052;2022-08-06T14:36:21;2.30;;;1.10;;
74309;SDS011;62722;51.142;17.052;2022-08-06T14:38:49;2.60;;;1.30;;
74309;SDS011;62722;51.142;17.052;2022-08-06T14:41:17;2.63;;;1.10;;
74309;SDS011;62722;51.142;17.052;2022-08-06T14:44:02;2.13;;;1.08;;
74309;SDS011;62722;51.142;17.052;2022-08-06T14:46:47;2.40;;;1.25;;
74309;SDS011;62722;51.142;17.052;2022-08-06T14:49:15;3.72;;;1.40;;
74309;SDS011;62722;51.142;17.052;2022-08-06T14:51:42;2.00;;;1.30;;
74309;SDS011;62722;51.142;17.052;2022-08-06T14:54:10;1.90;;;1.10;;
74309;SDS011;62722;51.142;17.052;2022-08-06T14:56:39;2.67;;;1.50;;
74309;SDS011;62722;51.142;17.052;2022-08-06T14:59:07;4.00;;;2.50;;
74309;SDS011;62722;51.142;17.052;2022-08-06T15:01:34;2.55;;;1.13;;
74309;SDS011;62722;51.142;17.052;2022-08-06T15:04:02;1.83;;;1.13;;
74309;SDS011;62722;51.142;17.052;2022-08-06T15:06:30;2.25;;;1.23;;
74309;SDS011;62722;51.142;17.052;2022-08-06T15:08:57;2.25;;;1.15;;
74309;SDS011;62722;51.142;17.052;2022-08-06T15:11:25;2.03;;;1.15;;
74309;SDS011;62722;51.142;17.052;2022-08-06T15:13:53;2.55;;;1.20;;
74309;SDS011;62722;51.142;17.052;2022-08-06T15:16:21;2.35;;;1.05;;
74309;SDS011;62722;51.142;17.052;2022-08-06T15:22:43;1.92;;;1.02;;
74309;SDS011;62722;51.142;17.052;2022-08-06T15:25:11;2.03;;;1.00;;
74309;SDS011;62722;51.142;17.052;2022-08-06T15:27:43;2.00;;;1.00;;
74309;SDS011;62722;51.142;17.052;2022-08-06T15:30:12;1.95;;;1.17;;
74309;SDS011;62722;51.142;17.052;2022-08-06T15:32:41;2.92;;;1.00;;
74309;SDS011;62722;51.142;17.052;2022-08-06T15:35:08;1.92;;;1.10;;
74309;SDS011;62722;51.142;17.052;2022-08-06T15:37:35;3.20;;;1.15;;
74309;SDS011;62722;51.142;17.052;2022-08-06T15:40:15;3.15;;;0.98;;
74309;SDS011;62722;51.142;17.052;2022-08-06T15:47:15;2.97;;;1.00;;
74309;SDS011;62722;51.142;17.052;2022-08-06T15:49:43;1.70;;;0.98;;
74309;SDS011;62722;51.142;17.052;2022-08-06T15:52:11;3.15;;;1.15;;
74309;SDS011;62722;51.142;17.052;2022-08-06T15:54:38;2.03;;;1.20;;
74309;SDS011;62722;51.142;17.052;2022-08-06T16:16:05;2.90;;;0.90;;
74309;SDS011;62722;51.142;17.052;2022-08-06T16:18:33;3.10;;;1.02;;
74309;SDS011;62722;51.142;17.052;2022-08-06T16:21:02;2.10;;;1.15;;
74309;SDS011;62722;51.142;17.052;2022-08-06T16:23:29;2.80;;;1.10;;
74309;SDS011;62722;51.142;17.052;2022-08-06T16:25:57;2.70;;;1.02;;
74309;SDS011;62722;51.142;17.052;2022-08-06T16:28:24;3.80;;;1.20;;
74309;SDS011;62722;51.142;17.052;2022-08-06T16:30:54;3.15;;;1.20;;
74309;SDS011;62722;51.142;17.052;2022-08-06T16:33:23;1.45;;;0.85;;
74309;SDS011;62722;51.142;17.052;2022-08-06T16:35:51;2.55;;;1.20;;
74309;SDS011;62722;51.142;17.052;2022-08-06T16:38:27;3.03;;;1.05;;
74309;SDS011;62722;51.142;17.052;2022-08-06T16:40:55;7.07;;;2.53;;
74309;SDS011;62722;51.142;17.052;2022-08-06T16:43:23;3.55;;;1.40;;
74309;SDS011;62722;51.142;17.052;2022-08-06T16:45:51;2.28;;;1.00;;
74309;SDS011;62722;51.142;17.052;2022-08-06T16:48:19;3.88;;;1.20;;
74309;SDS011;62722;51.142;17.052;2022-08-06T16:50:49;1.98;;;0.80;;
74309;SDS011;62722;51.142;17.052;2022-08-06T16:53:22;2.60;;;1.13;;
74309;SDS011;62722;51.142;17.052;2022-08-06T16:55:49;2.67;;;0.80;;
74309;SDS011;62722;51.142;17.052;2022-08-06T16:58:18;2.78;;;0.85;;
74309;SDS011;62722;51.142;17.052;2022-08-06T17:00:45;2.70;;;1.10;;